sensor_id;sensor_type;location;lat;lon;timestamp;pressure;altitude;pressure_sealevel;temperature;humidity
49055;BME280;35405;52.344;14.530;2023-03-15T06:45:22;100188.56;;;-0.07;100.00
49055;BME280;35405;52.344;14.530;2023-03-15T06:47:47;100187.41;;;0.01;100.00
49055;BME280;35405;52.344;14.530;2023-03-15T06:50:12;100195.88;;;0.09;100.00
49055;BME280;35405;52.344;14.530;2023-03-15T06:52:38;100197.25;;;0.12;100.00
49055;BME280;35405;52.344;14.530;2023-03-15T06:55:03;100198.16;;;0.17;100.00
49055;BME280;35405;52.344;14.530;2023-03-15T06:57:29;100189.47;;;0.22;100.00
49055;BME280;35405;52.344;14.530;2023-03-15T06:59:54;100202.34;;;0.25;100.00
49055;BME280;35405;52.344;14.530;2023-03-15T07:02:19;100207.44;;;0.38;100.00
49055;BME280;35405;52.344;14.530;2023-03-15T07:04:45;100212.19;;;0.48;100.00
49055;BME280;35405;52.344;14.530;2023-03-15T07:07:10;100209.88;;;0.52;100.00
49055;BME280;35405;52.344;14.530;2023-03-15T07:09:36;100215.06;;;0.58;100.00
49055;BME280;35405;52.344;14.530;2023-03-15T07:12:01;100223.22;;;0.63;100.00
49055;BME280;35405;52.344;14.530;2023-03-15T07:14:26;100227.38;;;0.71;100.00
49055;BME280;35405;52.344;14.530;2023-03-15T07:16:52;100232.94;;;0.81;100.00
49055;BME280;35405;52.344;14.530;2023-03-15T07:19:17;100233.13;;;0.91;100.00
49055;BME280;35405;52.344;14.530;2023-03-15T07:21:42;100228.19;;;1.00;100.00
49055;BME280;35405;52.344;14.530;2023-03-15T07:24:07;100228.16;;;1.12;100.00
49055;BME280;35405;52.344;14.530;2023-03-15T07:26:32;100227.19;;;1.18;100.00
49055;BME280;35405;52.344;14.530;2023-03-15T07:28:58;100229.22;;;1.28;100.00
49055;BME280;35405;52.344;14.530;2023-03-15T07:31:23;100225.25;;;1.30;100.00
49055;BME280;35405;52.344;14.530;2023-03-15T07:33:48;100229.16;;;1.40;100.00
49055;BME280;35405;52.344;14.530;2023-03-15T07:36:14;100235.50;;;1.50;100.00
49055;BME280;35405;52.344;14.530;2023-03-15T07:38:39;100238.75;;;1.52;100.00
49055;BME280;35405;52.344;14.530;2023-03-15T07:41:06;100238.59;;;1.59;100.00
49055;BME280;35405;52.344;14.530;2023-03-15T07:43:31;100234.94;;;1.65;100.00
49055;BME280;35405;52.344;14.530;2023-03-15T07:45:57;100248.34;;;1.65;100.00
49055;BME280;35405;52.344;14.530;2023-03-15T07:48:22;100240.16;;;1.72;100.00
49055;BME280;35405;52.344;14.530;2023-03-15T07:50:47;100237.94;;;1.86;100.00
49055;BME280;35405;52.344;14.530;2023-03-15T07:53:12;100245.50;;;1.89;100.00
49055;BME280;35405;52.344;14.530;2023-03-15T07:55:38;100243.47;;;1.96;100.00
49055;BME280;35405;52.344;14.530;2023-03-15T07:58:03;100251.19;;;1.75;100.00
49055;BME280;35405;52.344;14.530;2023-03-15T08:00:28;100246.41;;;1.60;100.00
49055;BME280;35405;52.344;14.530;2023-03-15T08:02:54;100249.63;;;1.46;100.00
49055;BME280;35405;52.344;14.530;2023-03-15T08:05:19;100295.88;;;1.41;100.00
49055;BME280;35405;52.344;14.530;2023-03-15T08:07:44;100304.84;;;1.47;100.00
49055;BME280;35405;52.344;14.530;2023-03-15T08:10:10;100304.47;;;1.55;100.00
49055;BME280;35405;52.344;14.530;2023-03-15T08:12:35;100305.53;;;1.54;100.00
49055;BME280;35405;52.344;14.530;2023-03-15T08:15:01;100306.16;;;1.61;100.00
49055;BME280;35405;52.344;14.530;2023-03-15T08:17:26;100315.75;;;1.74;100.00
49055;BME280;35405;52.344;14.530;2023-03-15T08:19:51;100315.78;;;1.91;100.00
49055;BME280;35405;52.344;14.530;2023-03-15T08:22:16;100316.34;;;2.10;100.00
49055;BME280;35405;52.344;14.530;2023-03-15T08:24:41;100313.91;;;2.25;100.00
49055;BME280;35405;52.344;14.530;2023-03-15T08:27:07;100315.78;;;2.41;100.00
49055;BME280;35405;52.344;14.530;2023-03-15T08:29:32;100319.66;;;2.50;100.00
49055;BME280;35405;52.344;14.530;2023-03-15T08:31:57;100318.44;;;2.80;100.00
49055;BME280;35405;52.344;14.530;2023-03-15T08:34:23;100319.97;;;3.42;100.00
49055;BME280;35405;52.344;14.530;2023-03-15T08:36:48;100322.38;;;3.98;100.00
49055;BME280;35405;52.344;14.530;2023-03-15T08:39:14;100332.88;;;3.67;100.00
49055;BME280;35405;52.344;14.530;2023-03-15T08:41:39;100337.81;;;3.26;100.00
49055;BME280;35405;52.344;14.530;2023-03-15T08:44:05;100334.78;;;2.79;100.00
49055;BME280;35405;52.344;14.530;2023-03-15T08:46:30;100349.56;;;2.59;100.00
49055;BME280;35405;52.344;14.530;2023-03-15T08:48:57;100336.38;;;2.58;100.00
49055;BME280;35405;52.344;14.530;2023-03-15T08:51:22;100342.31;;;2.98;100.00
49055;BME280;35405;52.344;14.530;2023-03-15T08:53:49;100341.31;;;3.05;100.00
49055;BME280;35405;52.344;14.530;2023-03-15T08:56:15;100355.16;;;3.40;100.00
49055;BME280;35405;52.344;14.530;2023-03-15T08:58:41;100340.09;;;3.66;100.00
49055;BME280;35405;52.344;14.530;2023-03-15T09:01:06;100337.16;;;3.95;100.00
49055;BME280;35405;52.344;14.530;2023-03-15T09:03:31;100351.06;;;4.19;100.00
49055;BME280;35405;52.344;14.530;2023-03-15T09:05:59;100359.56;;;4.38;100.00
49055;BME280;35405;52.344;14.530;2023-03-15T09:08:24;100361.47;;;4.43;100.00
49055;BME280;35405;52.344;14.530;2023-03-15T09:10:56;100361.72;;;4.84;100.00
49055;BME280;35405;52.344;14.530;2023-03-15T09:13:22;100359.66;;;4.53;100.00
49055;BME280;35405;52.344;14.530;2023-03-15T09:15:50;100372.06;;;4.54;100.00
49055;BME280;35405;52.344;14.530;2023-03-15T09:18:16;100360.53;;;4.64;100.00
49055;BME280;35405;52.344;14.530;2023-03-15T09:20:41;100371.94;;;4.39;100.00
49055;BME280;35405;52.344;14.530;2023-03-15T09:23:07;100379.75;;;4.08;100.00
49055;BME280;35405;52.344;14.530;2023-03-15T09:25:32;100385.31;;;4.29;100.00
49055;BME280;35405;52.344;14.530;2023-03-15T09:27:57;100387.25;;;4.71;100.00
49055;BME280;35405;52.344;14.530;2023-03-15T09:30:22;100385.72;;;4.90;100.00
49055;BME280;35405;52.344;14.530;2023-03-15T09:32:48;100396.06;;;5.03;100.00
49055;BME280;35405;52.344;14.530;2023-03-15T09:35:14;100386.19;;;5.24;100.00
49055;BME280;35405;52.344;14.530;2023-03-15T09:37:39;100400.72;;;5.18;100.00
49055;BME280;35405;52.344;14.530;2023-03-15T09:40:06;100404.53;;;4.80;100.00
49055;BME280;35405;52.344;14.530;2023-03-15T09:42:50;100416.81;;;4.61;100.00
49055;BME280;35405;52.344;14.530;2023-03-15T09:45:24;100418.06;;;4.16;100.00
49055;BME280;35405;52.344;14.530;2023-03-15T09:50:27;100432.97;;;4.28;100.00
49055;BME280;35405;52.344;14.530;2023-03-15T09:52:55;100437.50;;;4.23;100.00
49055;BME280;35405;52.344;14.530;2023-03-15T09:55:23;100431.34;;;4.27;100.00
49055;BME280;35405;52.344;14.530;2023-03-15T09:57:50;100436.47;;;4.29;100.00
49055;BME280;35405;52.344;14.530;2023-03-15T10:00:21;100444.09;;;4.10;100.00
49055;BME280;35405;52.344;14.530;2023-03-15T10:02:51;100451.22;;;3.94;100.00
49055;BME280;35405;52.344;14.530;2023-03-15T10:05:21;100450.16;;;3.95;100.00
49055;BME280;35405;52.344;14.530;2023-03-15T10:07:47;100451.97;;;4.17;100.00
49055;BME280;35405;52.344;14.530;2023-03-15T10:10:21;100451.53;;;4.30;100.00
49055;BME280;35405;52.344;14.530;2023-03-15T10:12:50;100466.22;;;3.90;100.00
49055;BME280;35405;52.344;14.530;2023-03-15T10:15:26;100468.50;;;3.54;100.00
49055;BME280;35405;52.344;14.530;2023-03-15T10:20:22;100472.25;;;3.53;100.00
49055;BME280;35405;52.344;14.530;2023-03-15T10:22:55;100481.81;;;3.44;100.00
49055;BME280;35405;52.344;14.530;2023-03-15T10:25:29;100486.19;;;3.72;100.00
49055;BME280;35405;52.344;14.530;2023-03-15T10:27:56;100477.22;;;4.10;100.00
49055;BME280;35405;52.344;14.530;2023-03-15T10:30:24;100473.09;;;4.30;100.00
49055;BME280;35405;52.344;14.530;2023-03-15T10:35:24;100475.06;;;4.72;100.00
49055;BME280;35405;52.344;14.530;2023-03-15T10:37:49;100476.81;;;4.56;100.00
49055;BME280;35405;52.344;14.530;2023-03-15T10:40:15;100473.66;;;4.32;100.00
49055;BME280;35405;52.344;14.530;2023-03-15T10:43:00;100481.31;;;4.18;100.00
49055;BME280;35405;52.344;14.530;2023-03-15T10:45:25;100491.09;;;4.02;100.00
49055;BME280;35405;52.344;14.530;2023-03-15T10:47:52;100495.69;;;4.02;100.00
49055;BME280;35405;52.344;14.530;2023-03-15T10:50:29;100486.97;;;4.17;100.00
49055;BME280;35405;52.344;14.530;2023-03-15T10:52:55;100485.50;;;4.31;100.00
49055;BME280;35405;52.344;14.530;2023-03-15T10:55:27;100487.72;;;4.71;100.00
49055;BME280;35405;52.344;14.530;2023-03-15T10:57:54;100489.25;;;4.94;100.00
49055;BME280;35405;52.344;14.530;2023-03-15T11:00:30;100487.19;;;5.07;100.00
49055;BME280;35405;52.344;14.530;2023-03-15T11:03:03;100494.31;;;5.28;100.00
49055;BME280;35405;52.344;14.530;2023-03-15T11:05:38;100494.16;;;5.50;100.00
49055;BME280;35405;52.344;14.530;2023-03-15T11:08:04;100493.41;;;5.60;100.00
49055;BME280;35405;52.344;14.530;2023-03-15T11:10:34;100502.44;;;5.38;100.00
49055;BME280;35405;52.344;14.530;2023-03-15T11:13:10;100502.56;;;5.54;100.00
49055;BME280;35405;52.344;14.530;2023-03-15T11:15:36;100503.81;;;5.93;100.00
49055;BME280;35405;52.344;14.530;2023-03-15T11:18:01;100503.91;;;6.24;100.00
49055;BME280;35405;52.344;14.530;2023-03-15T11:20:37;100508.81;;;6.48;100.00
49055;BME280;35405;52.344;14.530;2023-03-15T11:23:05;100515.03;;;6.63;100.00
49055;BME280;35405;52.344;14.530;2023-03-15T11:25:37;100528.19;;;6.19;100.00
49055;BME280;35405;52.344;14.530;2023-03-15T11:28:03;100538.44;;;6.22;100.00
49055;BME280;35405;52.344;14.530;2023-03-15T11:30:28;100551.09;;;6.06;100.00
49055;BME280;35405;52.344;14.530;2023-03-15T11:33:04;100561.47;;;5.72;100.00
49055;BME280;35405;52.344;14.530;2023-03-15T11:35:48;100576.91;;;5.44;100.00
49055;BME280;35405;52.344;14.530;2023-03-15T11:38:17;100578.69;;;5.23;100.00
49055;BME280;35405;52.344;14.530;2023-03-15T11:40:49;100584.19;;;4.74;100.00
49055;BME280;35405;52.344;14.530;2023-03-15T11:43:19;100590.78;;;3.90;100.00
49055;BME280;35405;52.344;14.530;2023-03-15T11:45:49;100593.03;;;3.38;100.00
49055;BME280;35405;52.344;14.530;2023-03-15T11:48:16;100583.44;;;3.08;100.00
49055;BME280;35405;52.344;14.530;2023-03-15T11:50:44;100575.69;;;2.95;100.00
49055;BME280;35405;52.344;14.530;2023-03-15T11:53:11;100569.34;;;3.01;100.00
49055;BME280;35405;52.344;14.530;2023-03-15T11:55:37;100562.25;;;3.29;100.00
49055;BME280;35405;52.344;14.530;2023-03-15T12:00:48;100551.25;;;3.91;100.00
49055;BME280;35405;52.344;14.530;2023-03-15T12:03:56;100545.91;;;4.18;100.00
49055;BME280;35405;52.344;14.530;2023-03-15T12:08:52;100539.03;;;4.54;100.00
49055;BME280;35405;52.344;14.530;2023-03-15T12:16:20;100550.88;;;5.65;100.00
49055;BME280;35405;52.344;14.530;2023-03-15T12:18:46;100549.94;;;5.92;100.00
49055;BME280;35405;52.344;14.530;2023-03-15T12:21:13;100547.13;;;6.24;100.00
49055;BME280;35405;52.344;14.530;2023-03-15T12:23:40;100570.44;;;6.66;100.00
49055;BME280;35405;52.344;14.530;2023-03-15T12:26:08;100584.97;;;6.50;100.00
49055;BME280;35405;52.344;14.530;2023-03-15T12:31:00;100600.47;;;6.95;100.00
49055;BME280;35405;52.344;14.530;2023-03-15T12:33:27;100592.88;;;7.13;100.00
49055;BME280;35405;52.344;14.530;2023-03-15T12:36:03;100595.34;;;6.99;100.00
49055;BME280;35405;52.344;14.530;2023-03-15T12:38:36;100599.66;;;6.90;100.00
49055;BME280;35405;52.344;14.530;2023-03-15T12:41:04;100609.34;;;6.60;100.00
49055;BME280;35405;52.344;14.530;2023-03-15T12:43:43;100609.91;;;6.77;100.00
49055;BME280;35405;52.344;14.530;2023-03-15T12:49:06;100614.72;;;5.92;100.00
49055;BME280;35405;52.344;14.530;2023-03-15T12:54:31;100624.13;;;5.10;100.00
49055;BME280;35405;52.344;14.530;2023-03-15T12:56:59;100623.47;;;4.97;100.00
49055;BME280;35405;52.344;14.530;2023-03-15T12:59:34;100624.22;;;4.88;100.00
49055;BME280;35405;52.344;14.530;2023-03-15T13:02:02;100627.41;;;4.85;100.00
49055;BME280;35405;52.344;14.530;2023-03-15T13:04:27;100617.19;;;5.19;100.00
49055;BME280;35405;52.344;14.530;2023-03-15T13:06:55;100625.56;;;5.55;100.00
49055;BME280;35405;52.344;14.530;2023-03-15T13:19:26;100643.81;;;5.10;100.00
49055;BME280;35405;52.344;14.530;2023-03-15T13:24:25;100645.69;;;5.10;100.00
49055;BME280;35405;52.344;14.530;2023-03-15T13:26:55;100655.81;;;5.24;100.00
49055;BME280;35405;52.344;14.530;2023-03-15T13:29:26;100650.09;;;5.53;100.00
49055;BME280;35405;52.344;14.530;2023-03-15T13:32:10;100663.88;;;5.94;100.00
49055;BME280;35405;52.344;14.530;2023-03-15T13:34:37;100669.50;;;6.40;100.00
49055;BME280;35405;52.344;14.530;2023-03-15T13:37:02;100667.44;;;6.62;100.00
49055;BME280;35405;52.344;14.530;2023-03-15T13:39:31;100681.69;;;6.43;100.00
49055;BME280;35405;52.344;14.530;2023-03-15T13:44:22;100685.69;;;5.92;100.00
49055;BME280;35405;52.344;14.530;2023-03-15T13:46:49;100696.31;;;5.99;100.00
49055;BME280;35405;52.344;14.530;2023-03-15T13:49:15;100687.34;;;6.36;100.00
49055;BME280;35405;52.344;14.530;2023-03-15T13:51:40;100696.31;;;6.52;100.00
49055;BME280;35405;52.344;14.530;2023-03-15T13:54:07;100706.91;;;6.74;100.00
49055;BME280;35405;52.344;14.530;2023-03-15T13:56:36;100713.41;;;6.73;100.00
49055;BME280;35405;52.344;14.530;2023-03-15T13:59:02;100712.47;;;6.41;100.00
49055;BME280;35405;52.344;14.530;2023-03-15T14:01:29;100717.91;;;5.99;100.00
49055;BME280;35405;52.344;14.530;2023-03-15T14:04:02;100720.63;;;5.67;100.00
49055;BME280;35405;52.344;14.530;2023-03-15T14:06:29;100720.31;;;5.63;100.00
49055;BME280;35405;52.344;14.530;2023-03-15T14:09:07;100726.50;;;5.32;100.00
49055;BME280;35405;52.344;14.530;2023-03-15T14:11:37;100728.19;;;5.11;100.00
49055;BME280;35405;52.344;14.530;2023-03-15T14:14:13;100729.19;;;5.04;100.00
49055;BME280;35405;52.344;14.530;2023-03-15T14:16:41;100734.38;;;5.11;100.00
49055;BME280;35405;52.344;14.530;2023-03-15T14:19:17;100723.94;;;5.15;100.00
49055;BME280;35405;52.344;14.530;2023-03-15T14:21:44;100720.25;;;5.26;100.00
49055;BME280;35405;52.344;14.530;2023-03-15T14:24:12;100723.28;;;5.30;100.00
49055;BME280;35405;52.344;14.530;2023-03-15T14:26:38;100730.19;;;5.53;100.00
49055;BME280;35405;52.344;14.530;2023-03-15T14:29:05;100722.22;;;5.63;100.00
49055;BME280;35405;52.344;14.530;2023-03-15T14:31:36;100727.59;;;5.63;100.00
49055;BME280;35405;52.344;14.530;2023-03-15T14:34:08;100723.88;;;6.06;100.00
49055;BME280;35405;52.344;14.530;2023-03-15T14:36:39;100724.16;;;6.57;100.00
49055;BME280;35405;52.344;14.530;2023-03-15T14:39:11;100726.09;;;6.67;100.00
49055;BME280;35405;52.344;14.530;2023-03-15T14:41:40;100728.28;;;6.23;100.00
49055;BME280;35405;52.344;14.530;2023-03-15T14:44:06;100723.88;;;6.06;100.00
49055;BME280;35405;52.344;14.530;2023-03-15T14:46:31;100721.31;;;5.89;100.00
49055;BME280;35405;52.344;14.530;2023-03-15T14:48:56;100736.00;;;5.66;100.00
49055;BME280;35405;52.344;14.530;2023-03-15T14:51:22;100733.88;;;5.41;100.00
49055;BME280;35405;52.344;14.530;2023-03-15T14:53:48;100730.34;;;5.36;100.00
49055;BME280;35405;52.344;14.530;2023-03-15T14:56:15;100743.47;;;5.27;100.00
49055;BME280;35405;52.344;14.530;2023-03-15T14:58:40;100746.84;;;5.17;100.00
49055;BME280;35405;52.344;14.530;2023-03-15T15:01:06;100751.41;;;5.12;100.00
49055;BME280;35405;52.344;14.530;2023-03-15T15:05:57;100756.13;;;4.99;100.00
49055;BME280;35405;52.344;14.530;2023-03-15T15:08:23;100765.00;;;5.00;100.00
49055;BME280;35405;52.344;14.530;2023-03-15T15:10:49;100762.63;;;5.03;100.00
49055;BME280;35405;52.344;14.530;2023-03-15T15:13:19;100769.59;;;4.99;100.00
49055;BME280;35405;52.344;14.530;2023-03-15T15:15:45;100764.94;;;4.95;100.00
49055;BME280;35405;52.344;14.530;2023-03-15T15:18:10;100765.53;;;4.97;100.00
49055;BME280;35405;52.344;14.530;2023-03-15T15:20:36;100762.13;;;5.07;100.00
49055;BME280;35405;52.344;14.530;2023-03-15T15:23:01;100762.22;;;5.17;100.00
49055;BME280;35405;52.344;14.530;2023-03-15T15:25:26;100784.50;;;5.34;100.00
49055;BME280;35405;52.344;14.530;2023-03-15T15:27:54;100783.56;;;5.45;100.00
49055;BME280;35405;52.344;14.530;2023-03-15T15:30:21;100787.41;;;5.55;100.00
49055;BME280;35405;52.344;14.530;2023-03-15T15:32:49;100794.38;;;5.78;100.00
49055;BME280;35405;52.344;14.530;2023-03-15T15:35:16;100790.13;;;5.87;100.00
49055;BME280;35405;52.344;14.530;2023-03-15T15:37:42;100792.94;;;5.97;100.00
49055;BME280;35405;52.344;14.530;2023-03-15T15:40:26;100785.47;;;6.09;100.00
49055;BME280;35405;52.344;14.530;2023-03-15T15:42:52;100798.31;;;6.29;100.00
49055;BME280;35405;52.344;14.530;2023-03-15T15:45:18;100795.34;;;5.93;100.00
49055;BME280;35405;52.344;14.530;2023-03-15T15:47:43;100797.78;;;5.41;100.00
49055;BME280;35405;52.344;14.530;2023-03-15T15:50:10;100797.53;;;4.93;100.00
49055;BME280;35405;52.344;14.530;2023-03-15T15:52:36;100798.22;;;4.62;100.00
49055;BME280;35405;52.344;14.530;2023-03-15T15:55:12;100791.00;;;4.45;100.00
49055;BME280;35405;52.344;14.530;2023-03-15T15:57:38;100788.22;;;4.40;100.00
49055;BME280;35405;52.344;14.530;2023-03-15T16:00:05;100785.13;;;4.31;100.00
49055;BME280;35405;52.344;14.530;2023-03-15T16:02:31;100788.75;;;4.20;100.00
49055;BME280;35405;52.344;14.530;2023-03-15T16:04:56;100784.03;;;4.10;100.00
49055;BME280;35405;52.344;14.530;2023-03-15T16:07:22;100789.75;;;3.97;100.00
49055;BME280;35405;52.344;14.530;2023-03-15T16:09:47;100799.34;;;3.93;100.00
49055;BME280;35405;52.344;14.530;2023-03-15T16:12:21;100800.31;;;3.87;100.00
49055;BME280;35405;52.344;14.530;2023-03-15T16:14:48;100802.13;;;3.81;100.00
49055;BME280;35405;52.344;14.530;2023-03-15T16:17:15;100813.53;;;3.72;100.00
49055;BME280;35405;52.344;14.530;2023-03-15T16:19:45;100810.75;;;3.66;100.00
49055;BME280;35405;52.344;14.530;2023-03-15T16:22:13;100819.28;;;3.63;100.00
49055;BME280;35405;52.344;14.530;2023-03-15T16:24:39;100825.72;;;3.62;100.00
49055;BME280;35405;52.344;14.530;2023-03-15T16:27:08;100835.97;;;3.49;100.00
49055;BME280;35405;52.344;14.530;2023-03-15T16:29:48;100827.22;;;3.41;100.00
49055;BME280;35405;52.344;14.530;2023-03-15T16:32:18;100831.38;;;3.32;100.00
49055;BME280;35405;52.344;14.530;2023-03-15T16:34:47;100828.81;;;3.26;100.00
49055;BME280;35405;52.344;14.530;2023-03-15T16:37:13;100832.47;;;3.19;100.00
49055;BME280;35405;52.344;14.530;2023-03-15T16:39:40;100827.09;;;3.19;100.00
49055;BME280;35405;52.344;14.530;2023-03-15T16:42:10;100839.84;;;3.12;100.00
49055;BME280;35405;52.344;14.530;2023-03-15T16:44:44;100843.13;;;3.03;100.00
49055;BME280;35405;52.344;14.530;2023-03-15T16:47:12;100842.69;;;2.94;100.00
49055;BME280;35405;52.344;14.530;2023-03-15T16:49:40;100843.97;;;2.80;100.00
49055;BME280;35405;52.344;14.530;2023-03-15T16:52:05;100843.44;;;2.66;100.00
49055;BME280;35405;52.344;14.530;2023-03-15T16:54:33;100851.97;;;2.51;100.00
49055;BME280;35405;52.344;14.530;2023-03-15T16:56:59;100847.41;;;2.40;100.00
49055;BME280;35405;52.344;14.530;2023-03-15T16:59:25;100852.31;;;2.31;100.00
49055;BME280;35405;52.344;14.530;2023-03-15T17:01:51;100857.31;;;2.27;100.00
49055;BME280;35405;52.344;14.530;2023-03-15T17:04:16;100851.25;;;2.20;100.00
49055;BME280;35405;52.344;14.530;2023-03-15T17:06:42;100856.94;;;2.00;100.00
49055;BME280;35405;52.344;14.530;2023-03-15T17:09:14;100848.16;;;1.81;100.00
49055;BME280;35405;52.344;14.530;2023-03-15T17:11:42;100840.53;;;1.67;100.00
49055;BME280;35405;52.344;14.530;2023-03-15T17:14:12;100833.50;;;1.54;100.00
49055;BME280;35405;52.344;14.530;2023-03-15T17:16:38;100840.22;;;1.45;100.00
49055;BME280;35405;52.344;14.530;2023-03-15T17:19:05;100842.97;;;1.38;100.00
49055;BME280;35405;52.344;14.530;2023-03-15T17:21:30;100843.38;;;1.42;100.00
49055;BME280;35405;52.344;14.530;2023-03-15T17:23:58;100839.72;;;1.36;100.00
49055;BME280;35405;52.344;14.530;2023-03-15T17:26:23;100840.38;;;1.31;100.00
49055;BME280;35405;52.344;14.530;2023-03-15T17:28:49;100844.66;;;1.21;100.00
49055;BME280;35405;52.344;14.530;2023-03-15T17:31:16;100844.50;;;1.16;100.00
49055;BME280;35405;52.344;14.530;2023-03-15T17:33:42;100848.47;;;1.13;100.00
49055;BME280;35405;52.344;14.530;2023-03-15T17:36:14;100849.19;;;1.02;100.00
49055;BME280;35405;52.344;14.530;2023-03-15T17:38:40;100839.25;;;0.90;100.00
49055;BME280;35405;52.344;14.530;2023-03-15T17:41:19;100850.25;;;0.82;100.00
49055;BME280;35405;52.344;14.530;2023-03-15T17:43:46;100845.56;;;0.78;100.00
49055;BME280;35405;52.344;14.530;2023-03-15T17:46:18;100852.69;;;0.65;100.00
49055;BME280;35405;52.344;14.530;2023-03-15T17:48:44;100848.66;;;0.56;100.00
49055;BME280;35405;52.344;14.530;2023-03-15T17:51:11;100838.84;;;0.50;100.00
49055;BME280;35405;52.344;14.530;2023-03-15T17:53:39;100840.78;;;0.43;100.00
49055;BME280;35405;52.344;14.530;2023-03-15T17:56:15;100850.44;;;0.44;100.00
49055;BME280;35405;52.344;14.530;2023-03-15T17:58:40;100848.38;;;0.46;100.00
49055;BME280;35405;52.344;14.530;2023-03-15T18:01:12;100846.41;;;0.35;100.00
49055;BME280;35405;52.344;14.530;2023-03-15T18:03:41;100846.25;;;0.30;100.00
49055;BME280;35405;52.344;14.530;2023-03-15T18:12:28;100862.47;;;0.35;100.00
49055;BME280;35405;52.344;14.530;2023-03-15T18:14:53;100859.72;;;0.41;100.00
49055;BME280;35405;52.344;14.530;2023-03-15T18:17:18;100858.69;;;0.42;100.00
49055;BME280;35405;52.344;14.530;2023-03-15T18:19:44;100868.28;;;0.50;100.00
49055;BME280;35405;52.344;14.530;2023-03-15T18:22:13;100875.06;;;0.53;100.00
49055;BME280;35405;52.344;14.530;2023-03-15T18:24:40;100874.63;;;0.56;100.00
49055;BME280;35405;52.344;14.530;2023-03-15T18:27:05;100871.28;;;0.35;100.00
49055;BME280;35405;52.344;14.530;2023-03-15T18:29:30;100875.53;;;0.25;100.00
49055;BME280;35405;52.344;14.530;2023-03-15T18:31:55;100877.34;;;0.24;100.00
49055;BME280;35405;52.344;14.530;2023-03-15T18:34:20;100876.78;;;0.22;100.00
49055;BME280;35405;52.344;14.530;2023-03-15T18:36:47;100876.59;;;0.17;100.00
49055;BME280;35405;52.344;14.530;2023-03-15T18:39:12;100893.75;;;0.34;100.00
49055;BME280;35405;52.344;14.530;2023-03-15T18:41:37;100887.25;;;0.49;100.00
49055;BME280;35405;52.344;14.530;2023-03-15T18:44:03;100891.31;;;0.51;100.00
49055;BME280;35405;52.344;14.530;2023-03-15T18:46:28;100899.06;;;0.59;100.00
49055;BME280;35405;52.344;14.530;2023-03-15T18:48:54;100892.09;;;0.58;100.00
49055;BME280;35405;52.344;14.530;2023-03-15T18:51:20;100900.59;;;0.74;100.00
49055;BME280;35405;52.344;14.530;2023-03-15T18:53:47;100898.53;;;0.94;100.00
49055;BME280;35405;52.344;14.530;2023-03-15T18:56:16;100909.31;;;0.87;100.00
49055;BME280;35405;52.344;14.530;2023-03-15T18:58:43;100916.94;;;0.84;100.00
49055;BME280;35405;52.344;14.530;2023-03-15T19:01:08;100918.44;;;0.80;100.00
49055;BME280;35405;52.344;14.530;2023-03-15T19:03:34;100926.19;;;0.70;100.00
49055;BME280;35405;52.344;14.530;2023-03-15T19:06:03;100932.66;;;0.80;100.00
49055;BME280;35405;52.344;14.530;2023-03-15T19:08:29;100939.22;;;0.84;100.00
49055;BME280;35405;52.344;14.530;2023-03-15T19:10:58;100943.16;;;0.82;100.00
49055;BME280;35405;52.344;14.530;2023-03-15T19:13:23;100942.72;;;0.85;100.00
49055;BME280;35405;52.344;14.530;2023-03-15T19:15:51;100943.16;;;0.82;100.00
49055;BME280;35405;52.344;14.530;2023-03-15T19:18:16;100948.28;;;0.83;100.00
49055;BME280;35405;52.344;14.530;2023-03-15T19:20:45;100956.03;;;0.91;100.00
49055;BME280;35405;52.344;14.530;2023-03-15T19:23:15;100963.78;;;0.75;100.00
49055;BME280;35405;52.344;14.530;2023-03-15T19:25:40;100957.44;;;0.69;100.00
49055;BME280;35405;52.344;14.530;2023-03-15T19:28:06;100969.91;;;0.57;100.00
49055;BME280;35405;52.344;14.530;2023-03-15T19:30:34;100973.44;;;0.57;100.00
49055;BME280;35405;52.344;14.530;2023-03-15T19:32:59;100981.06;;;0.54;100.00
49055;BME280;35405;52.344;14.530;2023-03-15T19:35:31;100974.19;;;0.39;100.00
49055;BME280;35405;52.344;14.530;2023-03-15T19:37:56;100978.69;;;0.39;100.00
49055;BME280;35405;52.344;14.530;2023-03-15T19:40:22;100982.47;;;0.31;100.00
49055;BME280;35405;52.344;14.530;2023-03-15T19:42:48;100982.53;;;0.18;100.00
49055;BME280;35405;52.344;14.530;2023-03-15T19:45:19;100989.75;;;0.17;100.00
49055;BME280;35405;52.344;14.530;2023-03-15T19:47:47;100989.91;;;0.22;100.00
49055;BME280;35405;52.344;14.530;2023-03-15T19:50:13;100991.16;;;0.20;100.00
49055;BME280;35405;52.344;14.530;2023-03-15T19:52:39;100988.50;;;0.20;100.00
49055;BME280;35405;52.344;14.530;2023-03-15T19:55:10;100982.75;;;0.16;100.00
49055;BME280;35405;52.344;14.530;2023-03-15T19:57:35;100984.66;;;0.09;100.00
49055;BME280;35405;52.344;14.530;2023-03-15T20:00:00;100989.16;;;0.15;100.00
49055;BME280;35405;52.344;14.530;2023-03-15T20:02:26;100984.63;;;0.16;100.00
49055;BME280;35405;52.344;14.530;2023-03-15T20:04:51;100997.94;;;0.22;100.00
49055;BME280;35405;52.344;14.530;2023-03-15T20:07:16;100992.38;;;0.24;100.00
49055;BME280;35405;52.344;14.530;2023-03-15T20:09:42;100999.19;;;0.20;100.00
49055;BME280;35405;52.344;14.530;2023-03-15T20:12:09;101006.00;;;0.16;100.00
49055;BME280;35405;52.344;14.530;2023-03-15T20:14:35;101008.84;;;0.21;100.00
49055;BME280;35405;52.344;14.530;2023-03-15T20:17:00;101008.69;;;0.16;100.00